sensor_id;sensor_type;location;lat;lon;timestamp;pressure;altitude;pressure_sealevel;temperature;humidity
40730;BME280;26418;50.070;8.436;2023-01-28T00:02:05;100857.06;;;2.14;82.84
40730;BME280;26418;50.070;8.436;2023-01-28T00:04:33;100853.88;;;2.05;83.21
40730;BME280;26418;50.070;8.436;2023-01-28T00:06:58;100854.81;;;1.92;83.33
40730;BME280;26418;50.070;8.436;2023-01-28T00:09:24;100861.19;;;1.91;83.42
40730;BME280;26418;50.070;8.436;2023-01-28T00:11:49;100872.28;;;1.88;83.54
40730;BME280;26418;50.070;8.436;2023-01-28T00:14:15;100846.53;;;1.75;83.63
40730;BME280;26418;50.070;8.436;2023-01-28T00:16:41;100880.34;;;1.81;83.67
40730;BME280;26418;50.070;8.436;2023-01-28T00:19:06;100866.63;;;1.78;83.90
40730;BME280;26418;50.070;8.436;2023-01-28T00:21:31;100858.41;;;1.79;83.91
40730;BME280;26418;50.070;8.436;2023-01-28T00:23:57;100846.53;;;1.75;83.97
40730;BME280;26418;50.070;8.436;2023-01-28T00:26:23;100851.44;;;1.78;84.09
40730;BME280;26418;50.070;8.436;2023-01-28T00:28:52;100853.50;;;1.76;84.00
40730;BME280;26418;50.070;8.436;2023-01-28T00:31:20;100857.97;;;1.82;83.73
40730;BME280;26418;50.070;8.436;2023-01-28T00:33:47;100859.47;;;1.78;83.59
40730;BME280;26418;50.070;8.436;2023-01-28T00:36:14;100864.19;;;1.76;83.79
40730;BME280;26418;50.070;8.436;2023-01-28T00:38:39;100867.66;;;1.77;83.56
40730;BME280;26418;50.070;8.436;2023-01-28T00:41:14;100861.25;;;1.59;83.62
40730;BME280;26418;50.070;8.436;2023-01-28T00:43:40;100863.31;;;1.57;84.16
40730;BME280;26418;50.070;8.436;2023-01-28T00:46:07;100874.19;;;1.55;84.32
40730;BME280;26418;50.070;8.436;2023-01-28T00:48:33;100874.19;;;1.55;84.24
40730;BME280;26418;50.070;8.436;2023-01-28T00:50:59;100869.53;;;1.51;84.54
40730;BME280;26418;50.070;8.436;2023-01-28T00:53:24;100869.72;;;1.49;84.28
40730;BME280;26418;50.070;8.436;2023-01-28T00:55:50;100868.25;;;1.53;83.81
40730;BME280;26418;50.070;8.436;2023-01-28T00:58:15;100869.91;;;1.54;84.51
40730;BME280;26418;50.070;8.436;2023-01-28T01:00:41;100862.06;;;1.60;84.25
40730;BME280;26418;50.070;8.436;2023-01-28T01:03:06;100856.31;;;1.63;83.68
40730;BME280;26418;50.070;8.436;2023-01-28T01:05:32;100865.72;;;1.65;83.34
40730;BME280;26418;50.070;8.436;2023-01-28T01:07:59;100850.19;;;1.55;83.02
40730;BME280;26418;50.070;8.436;2023-01-28T01:10:25;100868.56;;;1.64;83.12
40730;BME280;26418;50.070;8.436;2023-01-28T01:12:53;100864.88;;;1.65;83.08
40730;BME280;26418;50.070;8.436;2023-01-28T01:15:19;100870.81;;;1.67;83.10
40730;BME280;26418;50.070;8.436;2023-01-28T01:17:47;100853.78;;;1.68;82.58
40730;BME280;26418;50.070;8.436;2023-01-28T01:20:22;100873.22;;;1.75;82.27
40730;BME280;26418;50.070;8.436;2023-01-28T01:22:50;100867.06;;;1.75;82.52
40730;BME280;26418;50.070;8.436;2023-01-28T01:25:17;100866.84;;;1.76;82.12
40730;BME280;26418;50.070;8.436;2023-01-28T01:27:43;100864.59;;;1.73;82.83
40730;BME280;26418;50.070;8.436;2023-01-28T01:30:11;100873.22;;;1.75;82.67
40730;BME280;26418;50.070;8.436;2023-01-28T01:32:37;100873.06;;;1.70;82.20
40730;BME280;26418;50.070;8.436;2023-01-28T01:35:04;100882.50;;;1.66;82.27
40730;BME280;26418;50.070;8.436;2023-01-28T01:37:30;100880.94;;;1.58;82.62
40730;BME280;26418;50.070;8.436;2023-01-28T01:39:56;100891.53;;;1.65;82.53
40730;BME280;26418;50.070;8.436;2023-01-28T01:42:23;100897.06;;;1.70;82.34
40730;BME280;26418;50.070;8.436;2023-01-28T01:45:11;100899.00;;;1.81;81.27
40730;BME280;26418;50.070;8.436;2023-01-28T01:47:45;100897.41;;;1.80;81.20
40730;BME280;26418;50.070;8.436;2023-01-28T01:52:50;100901.75;;;1.75;81.63
40730;BME280;26418;50.070;8.436;2023-01-28T01:55:19;100905.88;;;1.70;81.94
40730;BME280;26418;50.070;8.436;2023-01-28T01:57:48;100899.34;;;1.66;82.07
40730;BME280;26418;50.070;8.436;2023-01-28T02:00:16;100914.44;;;1.79;82.14
40730;BME280;26418;50.070;8.436;2023-01-28T02:02:45;100903.38;;;1.76;81.84
40730;BME280;26418;50.070;8.436;2023-01-28T02:05:12;100915.84;;;1.82;81.96
40730;BME280;26418;50.070;8.436;2023-01-28T02:07:38;100908.66;;;1.82;81.36
40730;BME280;26418;50.070;8.436;2023-01-28T02:10:05;100905.00;;;1.77;81.77
40730;BME280;26418;50.070;8.436;2023-01-28T02:12:36;100898.91;;;1.69;82.17
40730;BME280;26418;50.070;8.436;2023-01-28T02:15:09;100914.81;;;1.83;81.63
40730;BME280;26418;50.070;8.436;2023-01-28T02:17:36;100902.66;;;1.87;81.40
40730;BME280;26418;50.070;8.436;2023-01-28T02:20:07;100894.28;;;1.83;81.86
40730;BME280;26418;50.070;8.436;2023-01-28T02:30:37;100903.91;;;1.84;81.49
40730;BME280;26418;50.070;8.436;2023-01-28T02:33:10;100909.69;;;1.81;81.83
40730;BME280;26418;50.070;8.436;2023-01-28T02:35:47;100907.63;;;1.83;81.69
40730;BME280;26418;50.070;8.436;2023-01-28T02:38:28;100901.09;;;1.79;81.81
40730;BME280;26418;50.070;8.436;2023-01-28T02:41:14;100910.13;;;1.78;81.82
40730;BME280;26418;50.070;8.436;2023-01-28T02:43:44;100902.16;;;1.71;82.06
40730;BME280;26418;50.070;8.436;2023-01-28T02:49:13;100908.34;;;1.72;82.75
40730;BME280;26418;50.070;8.436;2023-01-28T02:57:15;100918.75;;;1.80;82.73
40730;BME280;26418;50.070;8.436;2023-01-28T02:59:47;100921.59;;;1.79;82.65
40730;BME280;26418;50.070;8.436;2023-01-28T03:05:08;100923.72;;;1.70;83.10
40730;BME280;26418;50.070;8.436;2023-01-28T03:07:37;100931.88;;;1.75;82.34
40730;BME280;26418;50.070;8.436;2023-01-28T03:10:05;100928.03;;;1.71;82.59
40730;BME280;26418;50.070;8.436;2023-01-28T03:12:32;100932.34;;;1.72;82.58
40730;BME280;26418;50.070;8.436;2023-01-28T03:15:33;100933.16;;;1.72;83.13
40730;BME280;26418;50.070;8.436;2023-01-28T03:18:51;100931.88;;;1.75;82.69
40730;BME280;26418;50.070;8.436;2023-01-28T03:21:39;100942.56;;;1.75;82.84
40730;BME280;26418;50.070;8.436;2023-01-28T03:24:30;100940.72;;;1.76;83.04
40730;BME280;26418;50.070;8.436;2023-01-28T03:27:33;100943.16;;;1.77;83.30
40730;BME280;26418;50.070;8.436;2023-01-28T03:30:24;100941.75;;;1.75;83.09
40730;BME280;26418;50.070;8.436;2023-01-28T03:33:10;100949.94;;;1.73;82.77
40730;BME280;26418;50.070;8.436;2023-01-28T03:35:54;100945.88;;;1.70;82.88
40730;BME280;26418;50.070;8.436;2023-01-28T03:38:40;100947.28;;;1.73;83.24
40730;BME280;26418;50.070;8.436;2023-01-28T03:41:19;100939.13;;;1.68;83.60
40730;BME280;26418;50.070;8.436;2023-01-28T03:43:45;100935.81;;;1.72;83.59
40730;BME280;26418;50.070;8.436;2023-01-28T03:46:10;100956.47;;;1.84;82.53
40730;BME280;26418;50.070;8.436;2023-01-28T03:48:35;100941.13;;;1.72;82.13
40730;BME280;26418;50.070;8.436;2023-01-28T03:51:01;100958.75;;;1.80;82.32
40730;BME280;26418;50.070;8.436;2023-01-28T03:53:26;100959.16;;;1.77;82.06
40730;BME280;26418;50.070;8.436;2023-01-28T03:55:53;100959.16;;;1.77;82.73
40730;BME280;26418;50.070;8.436;2023-01-28T03:58:19;100957.69;;;1.81;82.91
40730;BME280;26418;50.070;8.436;2023-01-28T04:00:46;100964.66;;;1.82;82.46
40730;BME280;26418;50.070;8.436;2023-01-28T04:03:14;100956.28;;;1.79;81.50
40730;BME280;26418;50.070;8.436;2023-01-28T04:06:02;100950.56;;;1.75;81.79
40730;BME280;26418;50.070;8.436;2023-01-28T04:08:28;100962.00;;;1.82;81.65
40730;BME280;26418;50.070;8.436;2023-01-28T04:10:54;100950.94;;;1.79;81.86
40730;BME280;26418;50.070;8.436;2023-01-28T04:13:20;100963.47;;;1.78;81.71
40730;BME280;26418;50.070;8.436;2023-01-28T04:15:45;100957.91;;;1.80;81.36
40730;BME280;26418;50.070;8.436;2023-01-28T04:18:11;100964.09;;;1.80;81.81
40730;BME280;26418;50.070;8.436;2023-01-28T04:20:37;100965.25;;;1.84;81.72
40730;BME280;26418;50.070;8.436;2023-01-28T04:23:03;100967.13;;;1.84;81.24
40730;BME280;26418;50.070;8.436;2023-01-28T04:25:29;100965.69;;;1.81;81.58
40730;BME280;26418;50.070;8.436;2023-01-28T04:27:54;100960.53;;;1.86;81.13
40730;BME280;26418;50.070;8.436;2023-01-28T04:30:19;100963.22;;;1.86;80.72
40730;BME280;26418;50.070;8.436;2023-01-28T04:32:46;100965.66;;;1.88;80.79
40730;BME280;26418;50.070;8.436;2023-01-28T04:35:11;100959.94;;;1.84;80.12
40730;BME280;26418;50.070;8.436;2023-01-28T04:37:37;100958.53;;;1.82;79.60
40730;BME280;26418;50.070;8.436;2023-01-28T04:40:02;100972.66;;;1.82;79.60
40730;BME280;26418;50.070;8.436;2023-01-28T04:42:27;100968.16;;;1.83;79.82
40730;BME280;26418;50.070;8.436;2023-01-28T04:44:53;100967.13;;;1.84;79.80
40730;BME280;26418;50.070;8.436;2023-01-28T04:47:18;100962.00;;;1.82;79.18
40730;BME280;26418;50.070;8.436;2023-01-28T04:49:44;100963.63;;;1.83;78.84
40730;BME280;26418;50.070;8.436;2023-01-28T04:52:09;100956.84;;;1.87;78.51
40730;BME280;26418;50.070;8.436;2023-01-28T04:54:35;100968.53;;;1.86;78.72
40730;BME280;26418;50.070;8.436;2023-01-28T04:57:00;100969.56;;;1.85;79.09
40730;BME280;26418;50.070;8.436;2023-01-28T04:59:25;100965.25;;;1.84;78.22
40730;BME280;26418;50.070;8.436;2023-01-28T05:01:51;100967.06;;;1.91;77.91
40730;BME280;26418;50.070;8.436;2023-01-28T05:04:16;100953.16;;;1.88;77.26
40730;BME280;26418;50.070;8.436;2023-01-28T05:06:42;100968.88;;;1.97;76.97
40730;BME280;26418;50.070;8.436;2023-01-28T05:09:07;100970.34;;;1.93;76.90
40730;BME280;26418;50.070;8.436;2023-01-28T05:11:33;100965.22;;;1.91;76.83
40730;BME280;26418;50.070;8.436;2023-01-28T05:13:58;100972.63;;;1.89;77.11
40730;BME280;26418;50.070;8.436;2023-01-28T05:16:24;100975.50;;;1.87;77.01
40730;BME280;26418;50.070;8.436;2023-01-28T05:18:49;100973.88;;;1.86;76.92
40730;BME280;26418;50.070;8.436;2023-01-28T05:21:16;100978.56;;;1.91;76.87
40730;BME280;26418;50.070;8.436;2023-01-28T05:23:41;100958.28;;;1.83;76.65
40730;BME280;26418;50.070;8.436;2023-01-28T05:26:06;100977.81;;;1.84;77.39
40730;BME280;26418;50.070;8.436;2023-01-28T05:28:32;100983.50;;;1.87;77.32
40730;BME280;26418;50.070;8.436;2023-01-28T05:31:04;100975.28;;;1.89;77.18
40730;BME280;26418;50.070;8.436;2023-01-28T05:33:30;100984.56;;;1.86;77.27
40730;BME280;26418;50.070;8.436;2023-01-28T05:35:55;100988.03;;;1.87;77.42
40730;BME280;26418;50.070;8.436;2023-01-28T05:38:21;100993.56;;;1.85;77.69
40730;BME280;26418;50.070;8.436;2023-01-28T05:40:46;100990.91;;;1.85;77.65
40730;BME280;26418;50.070;8.436;2023-01-28T05:43:12;101002.84;;;1.83;77.75
40730;BME280;26418;50.070;8.436;2023-01-28T05:45:37;100990.16;;;1.71;78.15
40730;BME280;26418;50.070;8.436;2023-01-28T05:48:03;101000.75;;;1.85;78.32
40730;BME280;26418;50.070;8.436;2023-01-28T05:50:28;101004.47;;;1.84;79.22
40730;BME280;26418;50.070;8.436;2023-01-28T05:52:53;100999.69;;;1.93;81.91
40730;BME280;26418;50.070;8.436;2023-01-28T05:55:19;100999.25;;;1.96;79.87
40730;BME280;26418;50.070;8.436;2023-01-28T05:57:44;101001.53;;;1.92;79.38
40730;BME280;26418;50.070;8.436;2023-01-28T06:00:10;100996.28;;;1.79;79.12
40730;BME280;26418;50.070;8.436;2023-01-28T06:02:35;101006.88;;;1.92;79.41
40730;BME280;26418;50.070;8.436;2023-01-28T06:05:01;101019.38;;;1.92;83.12
40730;BME280;26418;50.070;8.436;2023-01-28T06:07:26;100991.78;;;1.79;82.60
40730;BME280;26418;50.070;8.436;2023-01-28T06:09:51;101016.69;;;1.98;87.16
40730;BME280;26418;50.070;8.436;2023-01-28T06:12:17;101015.31;;;2.14;86.13
40730;BME280;26418;50.070;8.436;2023-01-28T06:14:42;101011.84;;;2.14;81.10
40730;BME280;26418;50.070;8.436;2023-01-28T06:17:07;101019.44;;;2.17;78.94
40730;BME280;26418;50.070;8.436;2023-01-28T06:19:33;101029.72;;;2.13;78.00
40730;BME280;26418;50.070;8.436;2023-01-28T06:21:58;101027.16;;;1.93;77.97
40730;BME280;26418;50.070;8.436;2023-01-28T06:24:23;101032.91;;;1.97;78.23
40730;BME280;26418;50.070;8.436;2023-01-28T06:26:49;101035.63;;;1.90;78.53
40730;BME280;26418;50.070;8.436;2023-01-28T06:29:14;101040.94;;;1.90;78.62
40730;BME280;26418;50.070;8.436;2023-01-28T06:31:39;101053.13;;;1.79;78.56
40730;BME280;26418;50.070;8.436;2023-01-28T06:34:05;101039.59;;;1.74;78.37
40730;BME280;26418;50.070;8.436;2023-01-28T06:36:30;101049.69;;;1.72;78.23
40730;BME280;26418;50.070;8.436;2023-01-28T06:38:55;101052.75;;;1.69;79.33
40730;BME280;26418;50.070;8.436;2023-01-28T06:41:21;101049.06;;;1.70;79.00
40730;BME280;26418;50.070;8.436;2023-01-28T06:43:47;101053.31;;;1.78;83.54
40730;BME280;26418;50.070;8.436;2023-01-28T06:46:12;101049.56;;;1.92;79.85
40730;BME280;26418;50.070;8.436;2023-01-28T06:48:37;101047.31;;;1.89;79.42
40730;BME280;26418;50.070;8.436;2023-01-28T06:51:03;101055.31;;;1.89;78.13
40730;BME280;26418;50.070;8.436;2023-01-28T06:53:28;101060.25;;;1.85;77.96
40730;BME280;26418;50.070;8.436;2023-01-28T06:55:53;101058.63;;;1.84;78.34
40730;BME280;26418;50.070;8.436;2023-01-28T06:58:19;101053.94;;;1.80;78.27
40730;BME280;26418;50.070;8.436;2023-01-28T07:00:44;101057.59;;;1.85;78.17
40730;BME280;26418;50.070;8.436;2023-01-28T07:03:09;101061.13;;;1.79;78.28
40730;BME280;26418;50.070;8.436;2023-01-28T07:05:35;101055.00;;;1.72;78.12
40730;BME280;26418;50.070;8.436;2023-01-28T07:08:00;101056.84;;;1.71;78.41
40730;BME280;26418;50.070;8.436;2023-01-28T07:10:26;101068.16;;;1.67;78.11
40730;BME280;26418;50.070;8.436;2023-01-28T07:12:52;101064.88;;;1.65;78.16
40730;BME280;26418;50.070;8.436;2023-01-28T07:15:17;101036.88;;;1.49;78.49
40730;BME280;26418;50.070;8.436;2023-01-28T07:17:43;101072.91;;;1.58;78.51
40730;BME280;26418;50.070;8.436;2023-01-28T07:20:10;101074.94;;;1.63;78.07
40730;BME280;26418;50.070;8.436;2023-01-28T07:22:38;101074.13;;;1.62;77.92
40730;BME280;26418;50.070;8.436;2023-01-28T07:25:05;101078.03;;;1.60;78.33
40730;BME280;26418;50.070;8.436;2023-01-28T07:27:31;101075.78;;;1.56;78.41
40730;BME280;26418;50.070;8.436;2023-01-28T07:29:56;101072.31;;;1.49;78.80
40730;BME280;26418;50.070;8.436;2023-01-28T07:32:21;101088.53;;;1.54;78.56
40730;BME280;26418;50.070;8.436;2023-01-28T07:34:47;101067.84;;;1.43;78.81
40730;BME280;26418;50.070;8.436;2023-01-28T07:37:13;101083.78;;;1.56;78.41
40730;BME280;26418;50.070;8.436;2023-01-28T07:39:39;101088.06;;;1.64;78.57
40730;BME280;26418;50.070;8.436;2023-01-28T07:42:04;101079.22;;;1.70;79.88
40730;BME280;26418;50.070;8.436;2023-01-28T07:44:30;101085.31;;;1.78;79.30
40730;BME280;26418;50.070;8.436;2023-01-28T07:46:55;101091.28;;;1.80;78.51
40730;BME280;26418;50.070;8.436;2023-01-28T07:49:21;101096.22;;;1.76;78.15
40730;BME280;26418;50.070;8.436;2023-01-28T07:51:46;101092.09;;;1.80;77.49
40730;BME280;26418;50.070;8.436;2023-01-28T07:54:12;101081.06;;;1.70;77.17
40730;BME280;26418;50.070;8.436;2023-01-28T07:56:38;101085.38;;;1.71;76.39
40730;BME280;26418;50.070;8.436;2023-01-28T07:59:03;101085.19;;;1.66;76.24
40730;BME280;26418;50.070;8.436;2023-01-28T08:01:29;101099.50;;;1.71;76.30
40730;BME280;26418;50.070;8.436;2023-01-28T08:03:54;101096.59;;;1.80;76.32
40730;BME280;26418;50.070;8.436;2023-01-28T08:06:19;101102.94;;;1.85;75.64
40730;BME280;26418;50.070;8.436;2023-01-28T08:08:46;101106.88;;;1.83;75.46
40730;BME280;26418;50.070;8.436;2023-01-28T08:11:11;101100.91;;;1.81;76.16
40730;BME280;26418;50.070;8.436;2023-01-28T08:13:36;101102.97;;;1.79;75.39
40730;BME280;26418;50.070;8.436;2023-01-28T08:16:02;101103.75;;;1.86;75.11
40730;BME280;26418;50.070;8.436;2023-01-28T08:18:27;101101.47;;;1.89;74.70
40730;BME280;26418;50.070;8.436;2023-01-28T08:20:57;101109.28;;;1.91;74.87
40730;BME280;26418;50.070;8.436;2023-01-28T08:23:24;101114.63;;;1.91;74.71
40730;BME280;26418;50.070;8.436;2023-01-28T08:25:53;101109.69;;;1.88;74.36
40730;BME280;26418;50.070;8.436;2023-01-28T08:28:19;101115.88;;;1.88;74.99
40730;BME280;26418;50.070;8.436;2023-01-28T08:30:46;101105.78;;;1.91;74.57
40730;BME280;26418;50.070;8.436;2023-01-28T08:33:14;101103.09;;;1.97;73.85
40730;BME280;26418;50.070;8.436;2023-01-28T08:35:40;101118.88;;;1.99;74.05
40730;BME280;26418;50.070;8.436;2023-01-28T08:38:06;101112.09;;;2.03;73.61
40730;BME280;26418;50.070;8.436;2023-01-28T08:40:32;101109.66;;;2.01;73.95
40730;BME280;26418;50.070;8.436;2023-01-28T08:42:57;101108.19;;;1.99;74.18
40730;BME280;26418;50.070;8.436;2023-01-28T08:45:24;101109.66;;;2.01;73.46
40730;BME280;26418;50.070;8.436;2023-01-28T08:48:04;101115.19;;;2.00;74.22
40730;BME280;26418;50.070;8.436;2023-01-28T08:50:36;101115.19;;;2.00;74.54
40730;BME280;26418;50.070;8.436;2023-01-28T08:53:07;101119.66;;;2.06;73.88
40730;BME280;26418;50.070;8.436;2023-01-28T08:55:33;101129.28;;;2.14;74.53
40730;BME280;26418;50.070;8.436;2023-01-28T08:58:02;101125.78;;;2.13;72.72
40730;BME280;26418;50.070;8.436;2023-01-28T09:00:27;101130.91;;;2.15;72.93
40730;BME280;26418;50.070;8.436;2023-01-28T09:02:53;101130.28;;;2.19;72.99
40730;BME280;26418;50.070;8.436;2023-01-28T09:05:19;101130.91;;;2.15;73.08
40730;BME280;26418;50.070;8.436;2023-01-28T09:07:44;101134.00;;;2.12;73.51
40730;BME280;26418;50.070;8.436;2023-01-28T09:10:10;101133.59;;;2.15;74.09
40730;BME280;26418;50.070;8.436;2023-01-28T09:12:35;101129.69;;;2.11;73.49
40730;BME280;26418;50.070;8.436;2023-01-28T09:15:01;101131.56;;;2.10;73.06
40730;BME280;26418;50.070;8.436;2023-01-28T09:17:26;101148.38;;;2.11;71.98
40730;BME280;26418;50.070;8.436;2023-01-28T09:19:52;101152.13;;;2.03;73.07
40730;BME280;26418;50.070;8.436;2023-01-28T09:22:17;101142.72;;;1.94;73.02
40730;BME280;26418;50.070;8.436;2023-01-28T09:24:43;101156.47;;;1.91;73.36
40730;BME280;26418;50.070;8.436;2023-01-28T09:27:08;101151.13;;;1.97;73.62
40730;BME280;26418;50.070;8.436;2023-01-28T09:29:34;101147.66;;;1.90;73.59
40730;BME280;26418;50.070;8.436;2023-01-28T09:31:59;101144.13;;;1.96;73.68
40730;BME280;26418;50.070;8.436;2023-01-28T09:34:25;101156.59;;;2.09;73.75
40730;BME280;26418;50.070;8.436;2023-01-28T09:36:50;101157.44;;;2.10;73.05
40730;BME280;26418;50.070;8.436;2023-01-28T09:39:16;101156.19;;;2.12;73.43
40730;BME280;26418;50.070;8.436;2023-01-28T09:42:23;101166.41;;;2.15;72.67
40730;BME280;26418;50.070;8.436;2023-01-28T09:45:26;101165.00;;;2.06;72.68
40730;BME280;26418;50.070;8.436;2023-01-28T09:47:58;101164.38;;;2.11;72.62
40730;BME280;26418;50.070;8.436;2023-01-28T09:50:37;101164.19;;;2.12;72.83
40730;BME280;26418;50.070;8.436;2023-01-28T09:53:09;101170.56;;;2.11;73.05
40730;BME280;26418;50.070;8.436;2023-01-28T09:55:44;101166.63;;;2.14;71.84
40730;BME280;26418;50.070;8.436;2023-01-28T09:58:12;101173.84;;;2.13;72.08
40730;BME280;26418;50.070;8.436;2023-01-28T10:11:50;101177.31;;;2.14;71.61
40730;BME280;26418;50.070;8.436;2023-01-28T10:19:41;101171.81;;;2.09;71.12
40730;BME280;26418;50.070;8.436;2023-01-28T10:22:16;101184.50;;;2.13;71.61
40730;BME280;26418;50.070;8.436;2023-01-28T10:24:47;101184.25;;;2.22;70.94
40730;BME280;26418;50.070;8.436;2023-01-28T10:27:16;101185.03;;;2.29;70.96
40730;BME280;26418;50.070;8.436;2023-01-28T10:29:41;101188.97;;;2.26;71.18
40730;BME280;26418;50.070;8.436;2023-01-28T10:32:28;101190.25;;;2.17;70.96
40730;BME280;26418;50.070;8.436;2023-01-28T10:34:55;101181.41;;;2.16;70.72
40730;BME280;26418;50.070;8.436;2023-01-28T10:37:21;101181.59;;;2.22;71.00
40730;BME280;26418;50.070;8.436;2023-01-28T10:39:46;101188.53;;;2.23;71.05
40730;BME280;26418;50.070;8.436;2023-01-28T10:42:28;101182.63;;;2.20;70.90
40730;BME280;26418;50.070;8.436;2023-01-28T10:44:58;101169.69;;;2.17;71.14
40730;BME280;26418;50.070;8.436;2023-01-28T10:47:33;101190.94;;;2.38;71.32
40730;BME280;26418;50.070;8.436;2023-01-28T10:50:04;101183.06;;;2.49;70.65
40730;BME280;26418;50.070;8.436;2023-01-28T10:52:29;101183.03;;;2.56;70.44
40730;BME280;26418;50.070;8.436;2023-01-28T10:55:04;101192.84;;;2.62;70.41
40730;BME280;26418;50.070;8.436;2023-01-28T10:57:32;101188.91;;;2.65;70.05
40730;BME280;26418;50.070;8.436;2023-01-28T11:00:09;101187.88;;;2.66;68.64
40730;BME280;26418;50.070;8.436;2023-01-28T11:02:35;101174.03;;;2.50;68.60
40730;BME280;26418;50.070;8.436;2023-01-28T11:05:26;101182.88;;;2.51;68.70
40730;BME280;26418;50.070;8.436;2023-01-28T11:08:11;101182.69;;;2.46;68.84
40730;BME280;26418;50.070;8.436;2023-01-28T11:10:38;101156.94;;;2.26;69.76
40730;BME280;26418;50.070;8.436;2023-01-28T11:13:06;101171.63;;;2.42;69.87
40730;BME280;26418;50.070;8.436;2023-01-28T11:15:46;101188.41;;;2.49;69.31
40730;BME280;26418;50.070;8.436;2023-01-28T11:18:24;101185.94;;;2.55;69.31
40730;BME280;26418;50.070;8.436;2023-01-28T11:20:53;101171.56;;;2.49;68.39
40730;BME280;26418;50.070;8.436;2023-01-28T11:23:24;101183.19;;;2.61;68.14
40730;BME280;26418;50.070;8.436;2023-01-28T11:26:00;101181.38;;;2.55;67.93
40730;BME280;26418;50.070;8.436;2023-01-28T11:28:26;101173.81;;;2.52;68.73
40730;BME280;26418;50.070;8.436;2023-01-28T11:30:53;101189.78;;;2.59;67.78
40730;BME280;26418;50.070;8.436;2023-01-28T11:33:23;101193.50;;;2.58;67.77
40730;BME280;26418;50.070;8.436;2023-01-28T11:36:12;101193.88;;;2.61;67.29
40730;BME280;26418;50.070;8.436;2023-01-28T11:38:52;101181.63;;;2.54;67.45
40730;BME280;26418;50.070;8.436;2023-01-28T11:41:25;101175.91;;;2.43;67.78
40730;BME280;26418;50.070;8.436;2023-01-28T11:43:52;101180.47;;;2.43;67.89
40730;BME280;26418;50.070;8.436;2023-01-28T11:51:39;101175.31;;;2.41;68.16
40730;BME280;26418;50.070;8.436;2023-01-28T11:54:29;101182.50;;;2.41;67.53
40730;BME280;26418;50.070;8.436;2023-01-28T11:57:20;101169.41;;;2.32;67.95
40730;BME280;26418;50.070;8.436;2023-01-28T12:02:42;101157.31;;;2.30;67.99
40730;BME280;26418;50.070;8.436;2023-01-28T12:08:23;101172.28;;;2.31;68.62
40730;BME280;26418;50.070;8.436;2023-01-28T12:11:32;101171.47;;;2.30;68.15
40730;BME280;26418;50.070;8.436;2023-01-28T12:14:29;101170.84;;;2.35;71.45
40730;BME280;26418;50.070;8.436;2023-01-28T12:20:23;101171.19;;;2.45;69.27
40730;BME280;26418;50.070;8.436;2023-01-28T12:28:44;101173.59;;;2.22;68.06
40730;BME280;26418;50.070;8.436;2023-01-28T12:42:36;101152.66;;;2.18;67.56
40730;BME280;26418;50.070;8.436;2023-01-28T12:45:16;101144.25;;;2.15;67.66
40730;BME280;26418;50.070;8.436;2023-01-28T12:47:50;101152.22;;;2.22;67.22
40730;BME280;26418;50.070;8.436;2023-01-28T12:50:28;101157.13;;;2.25;67.18
40730;BME280;26418;50.070;8.436;2023-01-28T12:53:00;101155.28;;;2.25;67.49
40730;BME280;26418;50.070;8.436;2023-01-28T12:55:55;101156.19;;;2.12;66.06
40730;BME280;26418;50.070;8.436;2023-01-28T12:58:39;101153.13;;;2.09;66.83
40730;BME280;26418;50.070;8.436;2023-01-28T13:01:11;101138.56;;;2.04;66.46
40730;BME280;26418;50.070;8.436;2023-01-28T13:03:59;101148.59;;;2.09;66.30
40730;BME280;26418;50.070;8.436;2023-01-28T13:06:54;101156.75;;;2.14;67.04
40730;BME280;26418;50.070;8.436;2023-01-28T13:09:24;101147.69;;;2.22;65.96
40730;BME280;26418;50.070;8.436;2023-01-28T13:11:53;101151.16;;;2.29;64.61
40730;BME280;26418;50.070;8.436;2023-01-28T13:14:25;101152.44;;;2.20;64.47
40730;BME280;26418;50.070;8.436;2023-01-28T13:16:52;101142.88;;;2.06;65.10
40730;BME280;26418;50.070;8.436;2023-01-28T13:21:43;101165.75;;;2.27;65.72
40730;BME280;26418;50.070;8.436;2023-01-28T13:29:20;101176.59;;;2.32;63.84
40730;BME280;26418;50.070;8.436;2023-01-28T13:31:48;101183.44;;;2.21;62.91
40730;BME280;26418;50.070;8.436;2023-01-28T13:34:28;101179.75;;;2.15;67.66
40730;BME280;26418;50.070;8.436;2023-01-28T13:36:55;101163.75;;;2.15;73.36
40730;BME280;26418;50.070;8.436;2023-01-28T13:39:23;101182.28;;;2.42;73.23
40730;BME280;26418;50.070;8.436;2023-01-28T13:41:52;101182.16;;;2.62;68.05
40730;BME280;26418;50.070;8.436;2023-01-28T13:46:54;101191.75;;;3.02;73.34
40730;BME280;26418;50.070;8.436;2023-01-28T13:49:41;101187.84;;;3.23;72.69
40730;BME280;26418;50.070;8.436;2023-01-28T13:54:53;101178.53;;;3.07;61.95
40730;BME280;26418;50.070;8.436;2023-01-28T14:00:12;101192.84;;;2.62;60.71
40730;BME280;26418;50.070;8.436;2023-01-28T14:03:42;101192.56;;;2.45;60.20
40730;BME280;26418;50.070;8.436;2023-01-28T14:08:47;101192.06;;;2.23;60.97
40730;BME280;26418;50.070;8.436;2023-01-28T14:11:30;101192.06;;;2.23;60.83
40730;BME280;26418;50.070;8.436;2023-01-28T14:19:18;101171.19;;;2.07;62.21
40730;BME280;26418;50.070;8.436;2023-01-28T14:21:47;101185.94;;;2.16;62.09
40730;BME280;26418;50.070;8.436;2023-01-28T14:24:17;101169.53;;;2.12;62.76
40730;BME280;26418;50.070;8.436;2023-01-28T14:26:55;101190.00;;;2.25;61.47
40730;BME280;26418;50.070;8.436;2023-01-28T14:29:56;101194.13;;;2.14;61.69
40730;BME280;26418;50.070;8.436;2023-01-28T14:32:28;101192.94;;;2.10;62.55
40730;BME280;26418;50.070;8.436;2023-01-28T14:34:58;101189.47;;;2.10;62.93
40730;BME280;26418;50.070;8.436;2023-01-28T14:37:27;101193.97;;;2.09;63.03
40730;BME280;26418;50.070;8.436;2023-01-28T14:40:07;101194.97;;;2.15;62.79
40730;BME280;26418;50.070;8.436;2023-01-28T14:42:42;101190.88;;;2.12;63.37
40730;BME280;26418;50.070;8.436;2023-01-28T14:45:44;101185.53;;;2.12;62.39
40730;BME280;26418;50.070;8.436;2023-01-28T14:48:24;101191.47;;;2.14;60.96
40730;BME280;26418;50.070;8.436;2023-01-28T14:59:17;101181.22;;;2.11;62.94